createdAt,value
2023-02-23T00:02:16.478Z,101376.72
2023-02-23T00:04:44.754Z,101375.09
2023-02-23T00:07:11.783Z,101371.66
2023-02-23T00:09:38.628Z,101371.88
2023-02-23T00:12:06.816Z,101374.50
2023-02-23T00:14:35.140Z,101368.50
2023-02-23T00:17:01.905Z,101373.59
2023-02-23T00:19:28.886Z,101373.22
2023-02-23T00:21:56.972Z,101367.16
2023-02-23T00:24:23.641Z,101373.59
2023-02-23T00:26:50.291Z,101374.69
2023-02-23T00:29:19.777Z,101379.25
2023-02-23T00:31:48.211Z,101369.19
2023-02-23T00:34:17.222Z,101379.91
2023-02-23T00:36:43.863Z,101382.41
2023-02-23T00:39:14.642Z,101392.69
2023-02-23T00:41:41.350Z,101388.63
2023-02-23T00:44:08.700Z,101385.41
2023-02-23T00:46:35.431Z,101392.47
2023-02-23T00:49:02.786Z,101395.78
2023-02-23T00:51:29.562Z,101386.81
2023-02-23T00:53:57.258Z,101393.06
2023-02-23T00:56:25.875Z,101385.06
2023-02-23T00:58:52.573Z,101387.84
2023-02-23T01:01:19.741Z,101387.19
2023-02-23T01:03:46.747Z,101378.84
2023-02-23T01:06:16.203Z,101393.19
2023-02-23T01:08:45.147Z,101384.41
2023-02-23T01:11:14.341Z,101385.50
2023-02-23T01:13:44.538Z,101386.72
2023-02-23T01:16:13.429Z,101378.78
2023-02-23T01:18:41.949Z,101384.78
2023-02-23T01:21:15.049Z,101392.44
2023-02-23T01:23:41.782Z,101396.75
2023-02-23T01:26:15.738Z,101395.47
2023-02-23T01:28:43.842Z,101391.91
2023-02-23T01:31:10.719Z,101401.56
2023-02-23T01:33:37.466Z,101404.22
2023-02-23T01:36:04.977Z,101405.19
2023-02-23T01:38:31.913Z,101408.81
2023-02-23T01:40:58.615Z,101407.09
2023-02-23T01:43:25.408Z,101414.91
2023-02-23T01:45:54.767Z,101412.97
2023-02-23T01:48:27.232Z,101405.13
2023-02-23T01:50:59.983Z,101402.53
2023-02-23T01:53:33.003Z,101408.94
2023-02-23T01:56:05.798Z,101408.47
2023-02-23T01:58:33.905Z,101402.84
2023-02-23T02:01:02.302Z,101398.44
2023-02-23T02:03:34.329Z,101399.34
2023-02-23T02:06:03.824Z,101401.13
2023-02-23T02:08:33.841Z,101403.13
2023-02-23T02:11:00.903Z,101398.22
2023-02-23T02:13:31.966Z,101408.66
2023-02-23T02:16:17.348Z,101397.84
2023-02-23T02:19:12.522Z,101397.72
2023-02-23T02:21:56.676Z,101393.75
2023-02-23T02:24:56.443Z,101406.69
2023-02-23T02:27:40.823Z,101405.66
2023-02-23T02:30:37.119Z,101414.34
2023-02-23T02:33:41.909Z,101405.53
2023-02-23T02:36:30.268Z,101404.84
2023-02-23T02:39:04.387Z,101403.41
2023-02-23T02:41:39.135Z,101412.13
2023-02-23T02:44:14.038Z,101391.13
2023-02-23T02:46:46.100Z,101392.78
2023-02-23T02:49:20.475Z,101393.66
2023-02-23T02:51:54.981Z,101396.97
2023-02-23T02:54:28.179Z,101403.03
2023-02-23T02:56:59.081Z,101407.22
2023-02-23T02:59:27.585Z,101403.44
2023-02-23T03:01:54.523Z,101405.94
2023-02-23T03:04:24.237Z,101398.78
2023-02-23T03:06:53.804Z,101406.47
2023-02-23T03:09:32.450Z,101408.97
2023-02-23T03:12:07.482Z,101415.97
2023-02-23T03:14:42.071Z,101411.41
2023-02-23T03:17:24.170Z,101412.25
2023-02-23T03:19:57.167Z,101405.19
2023-02-23T03:22:28.068Z,101409.47
2023-02-23T03:25:00.694Z,101412.13
2023-02-23T03:27:39.932Z,101417.34
2023-02-23T03:30:15.211Z,101410.44
2023-02-23T03:32:49.451Z,101415.72
2023-02-23T03:35:24.595Z,101414.00
2023-02-23T03:37:58.840Z,101421.84
2023-02-23T03:40:32.422Z,101411.94
2023-02-23T03:43:02.433Z,101413.56
2023-02-23T03:45:30.601Z,101402.88
2023-02-23T03:47:59.792Z,101412.53
2023-02-23T03:50:33.063Z,101408.28
2023-02-23T03:53:04.277Z,101415.31
2023-02-23T03:55:34.830Z,101415.44
2023-02-23T03:58:02.946Z,101419.13
2023-02-23T04:00:36.728Z,101423.50
2023-02-23T04:03:06.117Z,101427.22
2023-02-23T04:05:38.205Z,101433.06
2023-02-23T04:08:09.548Z,101428.84
2023-02-23T04:10:50.879Z,101426.28
2023-02-23T04:13:21.023Z,101429.84
2023-02-23T04:15:51.376Z,101431.56
2023-02-23T04:18:23.270Z,101428.13
2023-02-23T04:20:50.308Z,101437.81
2023-02-23T04:23:18.344Z,101440.41
2023-02-23T04:25:46.489Z,101441.41
2023-02-23T04:28:13.349Z,101449.34
2023-02-23T04:30:40.140Z,101442.25
2023-02-23T04:33:07.103Z,101443.84
2023-02-23T04:35:34.409Z,101450.06
2023-02-23T04:38:01.188Z,101445.69
2023-02-23T04:40:28.353Z,101440.56
2023-02-23T04:42:56.912Z,101454.69
2023-02-23T04:45:24.582Z,101451.19
2023-02-23T04:47:51.985Z,101458.25
2023-02-23T04:50:19.105Z,101460.88
2023-02-23T04:52:45.882Z,101469.50
2023-02-23T04:55:17.279Z,101471.41
2023-02-23T04:57:44.324Z,101466.16
2023-02-23T05:00:13.401Z,101473.25
2023-02-23T05:02:40.456Z,101463.53
2023-02-23T05:05:08.388Z,101471.47
2023-02-23T05:07:36.266Z,101472.31
2023-02-23T05:10:04.054Z,101465.25
2023-02-23T05:12:30.923Z,101469.69
2023-02-23T05:14:58.043Z,101472.25
2023-02-23T05:17:26.122Z,101468.69
2023-02-23T05:19:52.911Z,101468.69
2023-02-23T05:22:19.616Z,101469.50
2023-02-23T05:24:46.347Z,101475.63
2023-02-23T05:27:14.521Z,101484.34
2023-02-23T05:29:41.719Z,101478.28
2023-02-23T05:32:08.582Z,101481.78
2023-02-23T05:34:36.736Z,101487.84
2023-02-23T05:37:03.539Z,101488.38
2023-02-23T05:39:30.342Z,101489.69
2023-02-23T05:41:57.003Z,101487.03
2023-02-23T05:44:23.955Z,101485.34
2023-02-23T05:46:50.653Z,101490.63
2023-02-23T05:49:17.380Z,101482.63
2023-02-23T05:51:45.468Z,101482.56
2023-02-23T05:54:12.292Z,101482.63
2023-02-23T05:56:38.988Z,101479.06
2023-02-23T05:59:09.240Z,101481.41
2023-02-23T06:01:36.072Z,101491.00
2023-02-23T06:04:04.578Z,101487.28
2023-02-23T06:06:32.386Z,101486.25
2023-02-23T06:09:00.554Z,101492.25
2023-02-23T06:11:27.318Z,101501.16
2023-02-23T06:13:54.320Z,101489.75
2023-02-23T06:16:21.231Z,101498.50
2023-02-23T06:18:48.354Z,101498.66
2023-02-23T06:21:15.301Z,101496.94
2023-02-23T06:23:42.141Z,101495.13
2023-02-23T06:26:10.350Z,101499.59
2023-02-23T06:28:37.280Z,101504.81
2023-02-23T06:31:04.227Z,101502.09
2023-02-23T06:33:31.246Z,101513.53
2023-02-23T06:35:58.011Z,101513.59
2023-02-23T06:38:24.768Z,101517.03
2023-02-23T06:40:52.164Z,101521.53
2023-02-23T06:43:22.846Z,101529.31
2023-02-23T06:45:50.338Z,101522.16
2023-02-23T06:48:16.990Z,101527.47
2023-02-23T06:50:43.805Z,101525.69
2023-02-23T06:53:10.471Z,101536.25
2023-02-23T06:55:37.124Z,101537.13
2023-02-23T06:58:03.783Z,101536.25
2023-02-23T07:00:31.961Z,101535.28
2023-02-23T07:02:58.661Z,101545.97
2023-02-23T07:05:25.506Z,101550.22
2023-02-23T07:07:52.237Z,101552.84
2023-02-23T07:10:19.410Z,101550.16
2023-02-23T07:12:46.123Z,101559.75
2023-02-23T07:15:13.060Z,101560.50
2023-02-23T07:17:41.356Z,101565.66
2023-02-23T07:20:09.324Z,101562.19
2023-02-23T07:22:37.082Z,101568.25
2023-02-23T07:25:06.076Z,101568.97
2023-02-23T07:27:33.171Z,101569.91
2023-02-23T07:29:59.823Z,101578.50
2023-02-23T07:32:26.612Z,101580.34
2023-02-23T07:34:55.290Z,101585.44
2023-02-23T07:37:22.146Z,101585.59
2023-02-23T07:39:48.899Z,101592.53
2023-02-23T07:42:15.668Z,101593.31
2023-02-23T07:44:42.936Z,101598.69
2023-02-23T07:47:09.969Z,101604.69
2023-02-23T07:49:36.688Z,101610.84
2023-02-23T07:52:05.222Z,101606.19
2023-02-23T07:54:32.128Z,101602.78
2023-02-23T07:56:59.124Z,101616.72
2023-02-23T07:59:28.894Z,101609.72
2023-02-23T08:01:55.738Z,101612.50
2023-02-23T08:04:22.487Z,101604.59
2023-02-23T08:06:49.439Z,101616.97
2023-02-23T08:09:17.562Z,101616.97
2023-02-23T08:11:44.325Z,101617.84
2023-02-23T08:14:11.726Z,101619.63
2023-02-23T08:16:38.521Z,101624.88
2023-02-23T08:19:05.465Z,101624.00
2023-02-23T08:21:32.550Z,101616.13
2023-02-23T08:23:59.220Z,101620.28
2023-02-23T08:26:27.294Z,101623.66
2023-02-23T08:28:54.384Z,101628.69
2023-02-23T08:31:22.261Z,101632.97
2023-02-23T08:33:49.641Z,101630.47
2023-02-23T08:36:16.359Z,101622.63
2023-02-23T08:38:43.335Z,101630.31
2023-02-23T08:41:10.060Z,101628.75
2023-02-23T08:43:38.132Z,101626.47
2023-02-23T08:46:05.465Z,101636.88
2023-02-23T08:48:32.883Z,101645.41
2023-02-23T08:51:00.462Z,101640.94
2023-02-23T08:53:27.654Z,101644.97
2023-02-23T08:55:57.991Z,101650.13
2023-02-23T08:58:24.767Z,101650.84
2023-02-23T09:00:52.787Z,101654.38
2023-02-23T09:03:20.188Z,101653.69
2023-02-23T09:05:46.961Z,101656.00
2023-02-23T09:08:15.000Z,101661.03
2023-02-23T09:10:42.577Z,101670.13
2023-02-23T09:13:09.620Z,101667.19
2023-02-23T09:15:36.293Z,101666.69
2023-02-23T09:18:04.409Z,101663.34
2023-02-23T09:20:31.283Z,101668.91
2023-02-23T09:22:58.115Z,101663.63
2023-02-23T09:25:24.884Z,101669.16
2023-02-23T09:27:53.349Z,101668.44
2023-02-23T09:30:21.174Z,101667.81
2023-02-23T09:32:48.726Z,101675.41
2023-02-23T09:35:18.864Z,101669.16
2023-02-23T09:37:46.718Z,101675.41
2023-02-23T09:40:17.030Z,101674.22
2023-02-23T09:42:52.681Z,101680.63
2023-02-23T09:45:26.139Z,101674.75
2023-02-23T09:48:08.661Z,101669.97
2023-02-23T09:50:39.524Z,101676.56
2023-02-23T09:53:15.482Z,101685.44
2023-02-23T09:55:43.676Z,101683.22
2023-02-23T09:58:21.030Z,101683.22
2023-02-23T10:00:56.434Z,101693.09
2023-02-23T10:03:29.852Z,101694.34
2023-02-23T10:06:00.585Z,101693.22
2023-02-23T10:08:57.660Z,101704.41
2023-02-23T10:11:29.296Z,101700.03
2023-02-23T10:14:13.146Z,101706.09
2023-02-23T10:16:50.687Z,101707.97
2023-02-23T10:19:24.166Z,101712.34
2023-02-23T10:21:56.808Z,101709.91
2023-02-23T10:24:28.860Z,101708.66
2023-02-23T10:27:00.129Z,101711.75
2023-02-23T10:29:30.999Z,101706.50
2023-02-23T10:32:02.717Z,101715.69
2023-02-23T10:34:31.237Z,101714.09
2023-02-23T10:37:01.297Z,101713.81
2023-02-23T10:39:28.784Z,101700.41
2023-02-23T10:41:58.076Z,101711.31
2023-02-23T10:44:26.731Z,101712.31
2023-02-23T10:46:57.791Z,101714.81
2023-02-23T10:49:31.769Z,101732.41
2023-02-23T10:51:59.790Z,101730.91
2023-02-23T10:54:38.039Z,101729.28
2023-02-23T10:57:07.400Z,101733.75
2023-02-23T10:59:34.493Z,101740.34
2023-02-23T11:02:21.066Z,101733.75
2023-02-23T11:04:52.812Z,101744.34
2023-02-23T11:07:24.400Z,101763.44
2023-02-23T11:09:51.751Z,101768.91
2023-02-23T11:12:22.653Z,101761.56
2023-02-23T11:14:50.718Z,101759.72
2023-02-23T11:17:30.142Z,101757.41
2023-02-23T11:20:02.738Z,101757.22
2023-02-23T11:22:37.722Z,101769.75
2023-02-23T11:25:17.621Z,101761.66
2023-02-23T11:27:48.297Z,101760.22
2023-02-23T11:30:16.050Z,101763.16
2023-02-23T11:32:43.017Z,101764.94
2023-02-23T11:35:27.007Z,101761.84
2023-02-23T11:37:55.776Z,101758.56
2023-02-23T11:40:25.302Z,101759.84
2023-02-23T11:42:54.722Z,101762.50
2023-02-23T11:45:23.764Z,101756.06
2023-02-23T11:47:52.989Z,101764.59
2023-02-23T11:50:22.895Z,101756.50
2023-02-23T11:52:57.124Z,101755.59
2023-02-23T11:55:25.616Z,101761.47
2023-02-23T11:57:52.689Z,101747.91
2023-02-23T12:00:25.949Z,101755.72
2023-02-23T12:02:55.891Z,101754.56
2023-02-23T12:05:25.570Z,101753.84
2023-02-23T12:07:59.768Z,101758.72
2023-02-23T12:10:32.864Z,101759.78
2023-02-23T12:13:06.073Z,101757.81
2023-02-23T12:15:42.252Z,101767.59
2023-02-23T12:18:19.386Z,101750.19
2023-02-23T12:20:50.816Z,101773.78
2023-02-23T12:23:22.519Z,101779.84
2023-02-23T12:25:55.814Z,101781.00
2023-02-23T12:28:28.511Z,101780.16
2023-02-23T12:30:59.375Z,101773.66
2023-02-23T12:33:32.382Z,101779.22
2023-02-23T12:36:03.107Z,101764.88
2023-02-23T12:38:43.915Z,101774.91
2023-02-23T12:41:14.497Z,101773.78
2023-02-23T12:43:47.228Z,101765.28
2023-02-23T12:46:17.960Z,101777.22
2023-02-23T12:48:50.723Z,101787.53
2023-02-23T12:51:25.357Z,101779.25
2023-02-23T12:53:57.211Z,101777.47
2023-02-23T12:56:43.225Z,101791.38
2023-02-23T12:59:21.019Z,101782.00
2023-02-23T13:01:53.584Z,101788.41
2023-02-23T13:04:59.235Z,101802.75
2023-02-23T13:07:35.885Z,101806.56
2023-02-23T13:10:12.534Z,101809.59
2023-02-23T13:12:51.289Z,101806.53
2023-02-23T13:15:27.275Z,101803.19
2023-02-23T13:17:59.839Z,101813.03
2023-02-23T13:20:33.019Z,101801.06
2023-02-23T13:23:09.949Z,101785.31
2023-02-23T13:25:44.731Z,101794.78
2023-02-23T13:28:18.296Z,101792.00
2023-02-23T13:30:45.062Z,101794.66
2023-02-23T13:33:32.218Z,101792.34
2023-02-23T13:36:09.599Z,101795.47
2023-02-23T13:38:46.741Z,101794.25
2023-02-23T13:41:31.060Z,101790.66
2023-02-23T13:44:08.392Z,101779.94
2023-02-23T13:46:46.966Z,101784.75
2023-02-23T13:49:25.316Z,101789.09
2023-02-23T13:51:56.933Z,101793.25
2023-02-23T13:54:25.198Z,101801.41
2023-02-23T13:56:55.383Z,101791.72
2023-02-23T13:59:25.909Z,101795.47
2023-02-23T14:01:54.312Z,101800.19
2023-02-23T14:04:23.987Z,101811.19
2023-02-23T14:06:53.990Z,101809.59
2023-02-23T14:09:24.038Z,101808.00
2023-02-23T14:11:52.965Z,101822.09
2023-02-23T14:14:42.546Z,101818.19
2023-02-23T14:17:25.100Z,101821.66
2023-02-23T14:20:17.939Z,101820.09
2023-02-23T14:23:28.900Z,101816.84
2023-02-23T14:26:39.341Z,101818.59
2023-02-23T14:29:28.661Z,101824.78
2023-02-23T14:32:00.980Z,101813.19
2023-02-23T14:34:45.066Z,101826.16
2023-02-23T14:37:18.180Z,101832.84
2023-02-23T14:39:45.429Z,101825.34
2023-02-23T14:42:23.940Z,101821.88
2023-02-23T14:44:52.076Z,101818.06
2023-02-23T14:47:21.752Z,101817.72
2023-02-23T14:49:49.983Z,101819.00
2023-02-23T14:52:21.587Z,101809.78
2023-02-23T14:54:48.519Z,101812.97
2023-02-23T14:57:20.800Z,101824.41
2023-02-23T14:59:58.362Z,101814.28
2023-02-23T15:02:28.515Z,101822.19
2023-02-23T15:04:57.543Z,101819.88
2023-02-23T15:07:31.297Z,101810.84
2023-02-23T15:09:59.881Z,101820.13
2023-02-23T15:12:29.643Z,101829.91
2023-02-23T15:14:57.897Z,101832.31
2023-02-23T15:17:28.709Z,101839.16
2023-02-23T15:20:14.436Z,101840.25
2023-02-23T15:22:42.705Z,101841.59
2023-02-23T15:25:16.753Z,101851.63
2023-02-23T15:27:45.365Z,101848.06
2023-02-23T15:30:24.881Z,101851.28
2023-02-23T15:33:01.539Z,101844.44
2023-02-23T15:35:30.185Z,101846.47
2023-02-23T15:38:11.383Z,101853.78
2023-02-23T15:40:41.398Z,101841.34
2023-02-23T15:43:11.193Z,101858.47
2023-02-23T15:45:42.707Z,101848.22
2023-02-23T15:48:16.011Z,101859.00
2023-02-23T15:50:45.319Z,101858.19
2023-02-23T15:53:23.225Z,101855.63
2023-02-23T15:55:50.055Z,101860.00
2023-02-23T15:58:22.665Z,101867.06
2023-02-23T16:00:54.624Z,101860.81
2023-02-23T16:03:30.696Z,101862.63
2023-02-23T16:06:04.817Z,101862.81
2023-02-23T16:08:31.685Z,101859.38
2023-02-23T16:11:07.444Z,101850.38
2023-02-23T16:13:34.826Z,101861.16
2023-02-23T16:16:01.860Z,101864.22
2023-02-23T16:18:39.623Z,101863.94
2023-02-23T16:21:08.011Z,101866.03
2023-02-23T16:23:40.478Z,101871.34
2023-02-23T16:26:12.003Z,101864.56
2023-02-23T16:28:42.715Z,101863.59
2023-02-23T16:31:10.816Z,101872.25
2023-02-23T16:33:44.458Z,101870.75
2023-02-23T16:36:19.223Z,101870.75
2023-02-23T16:38:59.156Z,101870.75
2023-02-23T16:41:27.448Z,101877.94
2023-02-23T16:43:55.770Z,101879.94
2023-02-23T16:46:25.497Z,101872.00
2023-02-23T16:48:53.406Z,101868.56
2023-02-23T16:51:21.929Z,101860.91
2023-02-23T16:53:49.195Z,101873.22
2023-02-23T16:56:19.167Z,101870.72
2023-02-23T16:58:48.596Z,101880.44
2023-02-23T17:01:18.690Z,101884.06
2023-02-23T17:03:52.786Z,101883.25
2023-02-23T17:06:21.722Z,101875.44
2023-02-23T17:08:57.526Z,101880.09
2023-02-23T17:11:24.922Z,101882.88
2023-02-23T17:13:51.995Z,101892.59
2023-02-23T17:16:19.094Z,101885.53
2023-02-23T17:18:46.203Z,101889.06
2023-02-23T17:21:13.985Z,101883.91
2023-02-23T17:23:42.663Z,101897.06
2023-02-23T17:26:11.558Z,101894.28
2023-02-23T17:28:39.462Z,101898.88
2023-02-23T17:31:07.960Z,101886.59
2023-02-23T17:33:35.996Z,101887.44
2023-02-23T17:36:05.236Z,101888.31
2023-02-23T17:38:31.990Z,101893.69
2023-02-23T17:41:00.426Z,101892.97
2023-02-23T17:43:27.397Z,101893.25
2023-02-23T17:45:54.049Z,101898.00
2023-02-23T17:48:20.758Z,101895.88
2023-02-23T17:50:47.466Z,101894.41
2023-02-23T17:53:14.276Z,101899.19
2023-02-23T17:55:40.927Z,101910.94
2023-02-23T17:58:09.325Z,101896.31
2023-02-23T18:00:36.107Z,101901.03
2023-02-23T18:03:02.863Z,101900.44
2023-02-23T18:05:29.668Z,101899.00
2023-02-23T18:07:56.356Z,101905.38
2023-02-23T18:10:23.117Z,101908.97
2023-02-23T18:12:49.757Z,101910.69
2023-02-23T18:15:17.868Z,101921.38
2023-02-23T18:17:45.229Z,101917.25
2023-02-23T18:20:13.466Z,101908.75
2023-02-23T18:22:40.201Z,101914.06
2023-02-23T18:25:08.348Z,101916.97
2023-02-23T18:27:35.138Z,101918.44
2023-02-23T18:30:01.811Z,101921.94
2023-02-23T18:32:30.267Z,101917.84
2023-02-23T18:34:57.130Z,101921.41
2023-02-23T18:37:23.906Z,101921.44
2023-02-23T18:39:51.999Z,101919.00
2023-02-23T18:42:18.838Z,101920.16
2023-02-23T18:44:45.598Z,101922.78
2023-02-23T18:47:12.359Z,101927.84
2023-02-23T18:49:40.634Z,101916.53
2023-02-23T18:52:07.566Z,101923.84
2023-02-23T18:54:34.247Z,101920.22
2023-02-23T18:57:00.981Z,101923.84
2023-02-23T18:59:27.792Z,101910.78
2023-02-23T19:01:54.891Z,101918.56
2023-02-23T19:04:22.040Z,101910.69
2023-02-23T19:06:50.202Z,101908.47
2023-02-23T19:09:16.894Z,101904.28
2023-02-23T19:11:43.663Z,101915.09
2023-02-23T19:14:12.614Z,101911.00
2023-02-23T19:16:39.711Z,101917.34
2023-02-23T19:19:07.705Z,101915.06
2023-02-23T19:21:36.119Z,101911.59
2023-02-23T19:24:05.684Z,101905.47
2023-02-23T19:26:34.304Z,101907.53
2023-02-23T19:29:01.164Z,101898.84
2023-02-23T19:31:27.944Z,101903.25
2023-02-23T19:33:56.742Z,101914.81
2023-02-23T19:36:26.445Z,101903.78
2023-02-23T19:38:53.405Z,101903.94
2023-02-23T19:41:23.232Z,101898.88
2023-02-23T19:43:52.419Z,101897.31
2023-02-23T19:46:19.205Z,101909.78
2023-02-23T19:48:48.952Z,101901.28
2023-02-23T19:51:15.582Z,101896.94
2023-02-23T19:53:42.401Z,101897.25
2023-02-23T19:56:12.006Z,101890.38
2023-02-23T19:58:40.490Z,101892.13
2023-02-23T20:01:09.508Z,101892.22
2023-02-23T20:03:38.890Z,101888.03
2023-02-23T20:06:06.997Z,101892.53
2023-02-23T20:08:34.116Z,101890.91
2023-02-23T20:11:04.776Z,101891.88
2023-02-23T20:13:31.504Z,101889.28
2023-02-23T20:16:02.102Z,101888.56
2023-02-23T20:18:29.077Z,101898.06
2023-02-23T20:20:55.886Z,101885.06
2023-02-23T20:23:22.591Z,101897.38
2023-02-23T20:25:49.385Z,101890.59
2023-02-23T20:28:16.223Z,101892.47
2023-02-23T20:30:45.519Z,101887.28
2023-02-23T20:33:14.129Z,101895.28
2023-02-23T20:35:41.368Z,101898.03
2023-02-23T20:38:08.581Z,101896.47
2023-02-23T20:40:35.760Z,101893.13
2023-02-23T20:43:02.514Z,101892.31
2023-02-23T20:45:29.739Z,101891.50
2023-02-23T20:47:56.548Z,101898.50
2023-02-23T20:50:26.106Z,101892.47
2023-02-23T20:52:52.824Z,101889.75
2023-02-23T20:55:19.821Z,101893.25
2023-02-23T20:57:47.861Z,101892.31
2023-02-23T21:00:16.832Z,101895.81
2023-02-23T21:02:43.874Z,101883.50
2023-02-23T21:05:10.748Z,101884.34
2023-02-23T21:07:39.965Z,101892.75
2023-02-23T21:10:07.748Z,101885.78
2023-02-23T21:12:35.217Z,101892.91
2023-02-23T21:15:02.286Z,101885.03
2023-02-23T21:17:29.265Z,101889.31
2023-02-23T21:19:56.267Z,101880.59
2023-02-23T21:22:23.235Z,101876.34
2023-02-23T21:24:51.485Z,101879.97
2023-02-23T21:27:18.559Z,101875.50
2023-02-23T21:29:46.355Z,101872.00
2023-02-23T21:32:14.668Z,101872.97
2023-02-23T21:34:41.723Z,101856.19
2023-02-23T21:37:08.744Z,101861.94
2023-02-23T21:39:35.456Z,101866.47
2023-02-23T21:42:03.762Z,101880.75
2023-02-23T21:44:30.600Z,101864.34
2023-02-23T21:46:57.323Z,101853.16
2023-02-23T21:49:24.000Z,101854.19
2023-02-23T21:51:52.522Z,101859.66
2023-02-23T21:54:20.156Z,101862.88
2023-02-23T21:56:46.840Z,101857.34
2023-02-23T21:59:14.988Z,101850.41
2023-02-23T22:01:41.954Z,101843.25
2023-02-23T22:04:11.621Z,101843.09
2023-02-23T22:06:39.071Z,101838.53
2023-02-23T22:09:06.556Z,101844.50
2023-02-23T22:11:33.343Z,101844.34
2023-02-23T22:14:00.268Z,101839.66
2023-02-23T22:16:30.824Z,101838.63
2023-02-23T22:18:57.811Z,101826.34
2023-02-23T22:21:24.616Z,101819.41
2023-02-23T22:23:51.464Z,101825.53
2023-02-23T22:26:18.169Z,101826.56
2023-02-23T22:28:45.045Z,101816.78
2023-02-23T22:31:14.090Z,101816.69
2023-02-23T22:33:43.664Z,101818.13
2023-02-23T22:36:13.023Z,101814.25
2023-02-23T22:38:41.748Z,101808.97
2023-02-23T22:41:09.287Z,101805.34
2023-02-23T22:43:36.072Z,101799.75
2023-02-23T22:46:02.957Z,101792.41
2023-02-23T22:48:29.804Z,101791.22
2023-02-23T22:50:58.544Z,101784.63
2023-02-23T22:53:25.533Z,101778.59
2023-02-23T22:55:53.950Z,101772.44
2023-02-23T22:58:20.771Z,101758.78
2023-02-23T23:00:49.300Z,101771.97
2023-02-23T23:03:16.150Z,101744.75
2023-02-23T23:05:48.225Z,101757.59
2023-02-23T23:08:16.375Z,101756.75
2023-02-23T23:10:43.565Z,101752.47
2023-02-23T23:13:10.279Z,101750.69
2023-02-23T23:15:37.033Z,101755.97
2023-02-23T23:18:03.902Z,101750.88
2023-02-23T23:20:30.655Z,101744.94
2023-02-23T23:22:57.455Z,101752.22
2023-02-23T23:25:27.206Z,101739.16
2023-02-23T23:27:54.940Z,101738.22
2023-02-23T23:30:21.859Z,101724.66
2023-02-23T23:32:49.042Z,101719.06
2023-02-23T23:35:15.944Z,101725.41
2023-02-23T23:37:42.801Z,101717.69
2023-02-23T23:40:11.337Z,101716.72
2023-02-23T23:42:39.872Z,101714.16
2023-02-23T23:45:07.938Z,101700.91
2023-02-23T23:47:34.935Z,101707.09
2023-02-23T23:50:01.728Z,101705.53
2023-02-23T23:52:28.548Z,101703.78
2023-02-23T23:54:55.490Z,101689.88
2023-02-23T23:57:22.210Z,101683.00
2023-02-23T23:59:50.507Z,101685.78
